Time;durP1;ratioP1;P1;durP2;ratioP2;P2;SDS_P1;SDS_P2;PMS_P1;PMS_P2;Temp;Humidity;BMP_temperature;BMP_pressure;BME280_temperature;BME280_humidity;BME280_pressure;Samples;Min_cycle;Max_cycle;Signal;HPM_P1;HPM_P2
2023/08/20 00:00:00;;;;;;;24.98;20.30;;;23.30;1.00;;;;;;5097933;28;20230;-86
2023/08/20 00:03:04;;;;;;;23.27;20.90;;;23.30;1.00;;;;;;5084342;28;20223;-84
2023/08/20 00:05:55;;;;;;;21.85;19.73;;;23.30;99.90;;;;;;5091554;28;20208;-86
2023/08/20 00:08:44;;;;;;;22.30;20.23;;;23.20;99.90;;;;;;5100932;27;20236;-87
2023/08/20 00:11:33;;;;;;;22.52;20.23;;;23.20;99.90;;;;;;5077866;28;20694;-86
2023/08/20 00:14:41;;;;;;;24.30;21.67;;;23.20;99.90;;;;;;5096459;28;20216;-91
2023/08/20 00:17:31;;;;;;;22.98;20.67;;;23.20;1.00;;;;;;5078529;28;20227;-89
2023/08/20 00:20:21;;;;;;;22.88;20.25;;;23.20;1.00;;;;;;5081317;28;20240;-89
2023/08/20 00:23:14;;;;;;;21.88;19.77;;;23.20;1.00;;;;;;5098543;27;20238;-88
2023/08/20 00:26:04;;;;;;;23.23;20.73;;;23.10;99.90;;;;;;5092947;28;20682;-92
2023/08/20 00:28:53;;;;;;;22.98;20.73;;;23.20;99.90;;;;;;5078626;28;20220;-84
2023/08/20 00:31:42;;;;;;;24.27;21.17;;;23.20;99.90;;;;;;5076284;28;20339;-87
2023/08/20 00:34:31;;;;;;;24.17;21.85;;;23.10;1.00;;;;;;5075708;28;20535;-89
2023/08/20 00:37:22;;;;;;;23.90;21.50;;;23.10;1.00;;;;;;5071381;28;20338;-90
2023/08/20 00:40:13;;;;;;;23.30;20.98;;;23.10;1.00;;;;;;5070339;28;20247;-90
2023/08/20 00:43:02;;;;;;;23.70;21.33;;;23.10;1.00;;;;;;5083885;28;20298;-91
2023/08/20 00:45:51;;;;;;;22.88;20.75;;;23.10;1.00;;;;;;5098017;28;20222;-90
2023/08/20 00:48:40;;;;;;;24.52;22.00;;;23.10;99.90;;;;;;5081227;28;20291;-90
2023/08/20 00:51:29;;;;;;;23.08;20.77;;;23.00;1.00;;;;;;5089556;28;20232;-90
2023/08/20 00:54:19;;;;;;;22.85;20.60;;;23.00;99.90;;;;;;5074204;28;20230;-89
2023/08/20 00:57:09;;;;;;;23.35;20.92;;;23.00;42.50;;;;;;5085812;28;20258;-86
2023/08/20 00:59:58;;;;;;;23.17;20.77;;;23.10;80.90;;;;;;5069135;28;20231;-84
2023/08/20 01:02:47;;;;;;;22.83;19.95;;;23.00;99.90;;;;;;5087433;28;20260;-85
2023/08/20 01:05:47;;;;;;;23.30;20.90;;;23.00;1.00;;;;;;5092766;28;20701;-85
2023/08/20 01:08:40;;;;;;;23.58;21.05;;;23.00;99.90;;;;;;5088675;28;21848;-80
2023/08/20 01:11:34;;;;;;;23.63;21.02;;;23.00;99.90;;;;;;5083034;28;20239;-81
2023/08/20 01:14:24;;;;;;;23.55;20.23;;;23.00;99.90;;;;;;5071652;28;20329;-80
2023/08/20 01:17:13;;;;;;;22.55;20.30;;;23.00;1.00;;;;;;5079929;28;20226;-81
2023/08/20 01:20:04;;;;;;;22.58;20.30;;;22.90;1.00;;;;;;5082341;28;20242;-82
2023/08/20 01:23:27;;;;;;;22.48;20.35;;;23.00;99.90;;;;;;5065754;28;20238;-85
2023/08/20 01:26:41;;;;;;;23.42;20.95;;;23.00;99.90;;;;;;5088927;28;20747;-85
2023/08/20 01:29:33;;;;;;;24.17;21.65;;;23.00;1.00;;;;;;5084790;28;20226;-85
2023/08/20 01:32:23;;;;;;;23.33;21.00;;;23.00;1.00;;;;;;5083170;28;20219;-87
2023/08/20 01:35:14;;;;;;;23.33;20.52;;;23.00;1.00;;;;;;5085929;28;20222;-86
2023/08/20 01:38:03;;;;;;;23.15;20.80;;;22.90;1.00;;;;;;5067380;28;20220;-86
2023/08/20 01:40:52;;;;;;;22.75;20.42;;;22.90;1.00;;;;;;5072163;28;20337;-88
2023/08/20 01:43:41;;;;;;;23.95;20.40;;;22.90;1.00;;;;;;5075439;28;20292;-92
2023/08/20 01:46:33;;;;;;;22.63;20.50;;;22.90;99.90;;;;;;5087278;28;20241;-88
2023/08/20 01:49:22;;;;;;;22.27;20.02;;;22.90;99.90;;;;;;5079446;28;20748;-84
2023/08/20 01:52:12;;;;;;;23.25;20.95;;;22.80;1.00;;;;;;5069002;28;20226;-84
2023/08/20 01:55:00;;;;;;;24.80;21.58;;;22.90;1.00;;;;;;5062612;28;20237;-85
2023/08/20 01:57:50;;;;;;;24.50;20.63;;;22.90;1.00;;;;;;5086874;28;20751;-88
2023/08/20 02:00:40;;;;;;;23.90;20.90;;;22.90;1.00;;;;;;5086362;28;20227;-89
2023/08/20 02:03:31;;;;;;;22.42;20.23;;;22.80;99.90;;;;;;5078373;28;20219;-89
2023/08/20 02:06:20;;;;;;;22.42;20.27;;;22.80;99.90;;;;;;5085065;28;20218;-90
2023/08/20 02:09:09;;;;;;;22.98;20.63;;;22.80;1.00;;;;;;5075589;28;20248;-89
2023/08/20 02:11:57;;;;;;;23.15;20.77;;;22.90;1.00;;;;;;5069620;28;20308;-90
2023/08/20 02:14:47;;;;;;;25.55;21.45;;;22.80;99.90;;;;;;5076479;28;20225;-90
2023/08/20 02:17:40;;;;;;;22.95;20.63;;;22.80;1.00;;;;;;5079981;28;20604;-90
2023/08/20 02:20:31;;;;;;;23.70;21.33;;;22.80;1.00;;;;;;5088260;28;20592;-90
2023/08/20 02:23:20;;;;;;;23.17;20.77;;;22.80;1.00;;;;;;5078340;28;20219;-91
2023/08/20 02:26:09;;;;;;;23.58;21.27;;;22.80;99.90;;;;;;5089072;28;20250;-89
2023/08/20 02:28:58;;;;;;;25.83;23.00;;;22.70;1.00;;;;;;5064706;28;20268;-90
2023/08/20 02:31:46;;;;;;;26.70;23.50;;;22.70;1.00;;;;;;5071846;28;20223;-91
2023/08/20 02:34:37;;;;;;;26.42;23.65;;;22.70;1.00;;;;;;5075029;28;20238;-90
2023/08/20 02:37:27;;;;;;;27.48;22.88;;;22.70;99.90;;;;;;5099731;28;20232;-90
2023/08/20 02:40:17;;;;;;;26.80;24.00;;;22.70;99.90;;;;;;5090339;28;20311;-91
2023/08/20 02:43:06;;;;;;;26.15;23.55;;;22.60;99.90;;;;;;5084241;28;20225;-90
2023/08/20 02:45:55;;;;;;;27.67;24.80;;;22.60;1.00;;;;;;5084182;28;20216;-91
2023/08/20 02:48:44;;;;;;;27.77;24.45;;;22.70;1.00;;;;;;5087835;28;20223;-88
2023/08/20 02:51:33;;;;;;;26.50;23.95;;;22.70;1.00;;;;;;5091920;28;20224;-86
2023/08/20 02:54:23;;;;;;;26.88;23.98;;;22.60;1.00;;;;;;5099097;28;20237;-90
2023/08/20 02:57:12;;;;;;;25.70;23.00;;;22.60;99.90;;;;;;5083031;28;20228;-90
2023/08/20 03:00:01;;;;;;;26.88;24.05;;;22.60;1.00;;;;;;5079640;28;20218;-89
2023/08/20 03:02:50;;;;;;;24.33;21.80;;;22.50;99.90;;;;;;5103565;27;20216;-90
2023/08/20 03:05:39;;;;;;;25.08;21.30;;;22.40;93.50;;;;;;5072654;28;20219;-90
2023/08/20 03:08:28;;;;;;;23.98;21.58;;;22.30;99.90;;;;;;5070734;28;20216;-89
2023/08/20 03:11:18;;;;;;;23.40;21.17;;;22.20;1.00;;;;;;5076484;28;20226;-91
2023/08/20 03:14:07;;;;;;;25.58;22.95;;;22.20;1.00;;;;;;5069163;28;20288;-91
2023/08/20 03:16:56;;;;;;;24.33;21.85;;;22.10;1.00;;;;;;5082691;28;20220;-92
2023/08/20 03:19:55;;;;;;;24.77;22.40;;;22.10;1.00;;;;;;5081178;28;20590;-90
2023/08/20 03:22:45;;;;;;;26.35;23.60;;;22.10;99.90;;;;;;5090831;28;20227;-89
2023/08/20 03:25:34;;;;;;;24.30;21.85;;;22.20;1.00;;;;;;5074384;28;20226;-86
2023/08/20 03:28:24;;;;;;;24.95;22.23;;;22.10;99.90;;;;;;5071915;28;20224;-85
2023/08/20 03:31:14;;;;;;;24.85;22.45;;;22.20;1.00;;;;;;5100118;28;20333;-86
2023/08/20 03:34:04;;;;;;;25.90;23.30;;;22.20;1.00;;;;;;5096357;27;20227;-91
2023/08/20 03:36:53;;;;;;;25.58;22.90;;;22.20;1.00;;;;;;5064803;28;20219;-86
2023/08/20 03:39:42;;;;;;;26.73;23.88;;;22.20;1.00;;;;;;5063496;28;20227;-85
2023/08/20 03:42:31;;;;;;;29.83;23.38;;;22.20;1.00;;;;;;5084570;28;20219;-85
2023/08/20 03:45:21;;;;;;;27.70;23.27;;;22.10;99.90;;;;;;5069155;28;20715;-86
2023/08/20 03:48:11;;;;;;;26.88;24.25;;;22.20;1.00;;;;;;5072894;28;20223;-85
2023/08/20 03:51:00;;;;;;;26.70;23.55;;;22.20;1.00;;;;;;5070973;28;20215;-86
2023/08/20 03:53:52;;;;;;;26.40;23.90;;;22.20;99.90;;;;;;5094242;27;20812;-84
2023/08/20 03:56:41;;;;;;;26.65;23.92;;;22.30;1.00;;;;;;5081733;28;20227;-85
2023/08/20 03:59:31;;;;;;;27.67;24.63;;;22.30;1.00;;;;;;5069364;28;20227;-83
2023/08/20 04:02:21;;;;;;;25.67;23.17;;;22.40;1.00;;;;;;5063693;28;20292;-83
2023/08/20 04:05:10;;;;;;;25.95;23.35;;;22.40;1.00;;;;;;5059079;28;20224;-84
2023/08/20 04:07:59;;;;;;;27.27;24.48;;;22.40;1.00;;;;;;5063072;28;20220;-83
2023/08/20 04:10:48;;;;;;;26.38;23.45;;;22.40;1.00;;;;;;5079771;28;20237;-83
2023/08/20 04:13:39;;;;;;;27.02;24.17;;;22.40;1.00;;;;;;5081845;28;20261;-88
2023/08/20 04:16:30;;;;;;;26.20;23.75;;;22.40;1.00;;;;;;5097518;28;20314;-85
2023/08/20 04:19:21;;;;;;;27.02;24.23;;;22.50;1.00;;;;;;5066991;28;20224;-85
2023/08/20 04:22:09;;;;;;;27.08;24.33;;;22.50;1.00;;;;;;5072187;28;20305;-85
2023/08/20 04:24:58;;;;;;;26.70;24.02;;;22.70;1.00;;;;;;5068143;28;20224;-85
2023/08/20 04:27:49;;;;;;;26.58;23.77;;;22.70;99.90;;;;;;5092238;28;20418;-79
2023/08/20 04:30:38;;;;;;;25.92;23.33;;;22.70;99.90;;;;;;5085504;28;20532;-81
2023/08/20 04:33:28;;;;;;;26.30;23.52;;;22.80;1.00;;;;;;5094355;27;20998;-83
2023/08/20 04:36:18;;;;;;;26.50;23.98;;;22.80;99.90;;;;;;5075811;28;20219;-83
2023/08/20 04:39:07;;;;;;;26.05;23.38;;;22.90;1.00;;;;;;5080902;28;20353;-82
2023/08/20 04:42:00;;;;;;;27.77;24.85;;;22.90;1.00;;;;;;5068748;28;20626;-81
2023/08/20 04:44:52;;;;;;;28.35;24.67;;;23.00;1.00;;;;;;5067866;28;20219;-80
2023/08/20 04:47:41;;;;;;;24.77;22.27;;;23.10;99.90;;;;;;5064198;28;20256;-81
2023/08/20 04:50:30;;;;;;;26.52;23.70;;;23.10;99.90;;;;;;5071460;28;20211;-83
2023/08/20 04:53:20;;;;;;;26.42;23.73;;;23.20;1.00;;;;;;5068151;28;20222;-85
2023/08/20 04:56:09;;;;;;;27.17;24.42;;;23.30;1.00;;;;;;5083397;28;20273;-83
2023/08/20 04:58:59;;;;;;;26.20;23.70;;;23.30;1.00;;;;;;5078642;28;20296;-82
2023/08/20 05:02:06;;;;;;;26.25;23.60;;;23.40;1.00;;;;;;5080405;28;20219;-85
2023/08/20 05:05:01;;;;;;;26.30;23.65;;;23.40;1.00;;;;;;5063933;28;20231;-86
2023/08/20 05:07:51;;;;;;;26.80;24.20;;;23.50;99.90;;;;;;5065427;28;20221;-84
2023/08/20 05:10:41;;;;;;;25.55;23.10;;;23.60;1.00;;;;;;5081998;28;20235;-84
2023/08/20 05:13:30;;;;;;;26.60;23.92;;;23.70;1.00;;;;;;5086324;28;20262;-88
2023/08/20 05:16:21;;;;;;;25.30;22.90;;;23.80;99.90;;;;;;5073528;28;20231;-88
2023/08/20 05:19:11;;;;;;;26.20;23.52;;;23.90;1.00;;;;;;5065482;28;20220;-88
2023/08/20 05:22:00;;;;;;;25.80;23.05;;;24.00;1.00;;;;;;5050069;28;20331;-87
2023/08/20 05:24:53;;;;;;;25.70;22.90;;;24.00;99.90;;;;;;5062118;28;20235;-84
2023/08/20 05:27:44;;;;;;;24.90;22.23;;;24.10;1.00;;;;;;5050726;28;20235;-88
2023/08/20 05:30:33;;;;;;;25.13;22.63;;;24.20;1.00;;;;;;5058346;28;20845;-87
2023/08/20 05:33:22;;;;;;;24.30;21.70;;;24.30;99.90;;;;;;5056094;28;20606;-85
2023/08/20 05:36:11;;;;;;;24.38;21.98;;;24.40;99.90;;;;;;5050173;28;20228;-90
2023/08/20 05:39:00;;;;;;;25.27;22.77;;;24.70;58.90;;;;;;5057311;28;20232;-90
2023/08/20 05:41:50;;;;;;;23.75;21.13;;;25.70;1.00;;;;;;5071579;28;20229;-86
2023/08/20 05:44:44;;;;;;;22.77;20.42;;;26.50;99.90;;;;;;5052099;28;20324;-87
2023/08/20 05:47:37;;;;;;;22.13;19.83;;;27.00;1.00;;;;;;5052277;28;20228;-85
2023/08/20 05:50:28;;;;;;;21.58;19.48;;;26.60;1.00;;;;;;5049153;28;20228;-86
2023/08/20 05:53:17;;;;;;;22.88;20.27;;;26.20;12.60;;;;;;5049059;28;20230;-90
2023/08/20 05:56:08;;;;;;;22.77;20.35;;;25.90;99.90;;;;;;5058979;28;20702;-86
2023/08/20 05:58:57;;;;;;;24.40;21.80;;;25.80;1.00;;;;;;5053877;28;20219;-85
2023/08/20 06:01:47;;;;;;;23.50;21.17;;;25.70;99.90;;;;;;5055516;28;20224;-84
2023/08/20 06:04:38;;;;;;;23.42;21.02;;;25.60;1.00;;;;;;5066707;28;20699;-84
2023/08/20 06:07:27;;;;;;;23.33;20.88;;;25.70;99.90;;;;;;5051553;28;20231;-81
2023/08/20 06:10:16;;;;;;;22.05;19.85;;;25.70;99.90;;;;;;5048665;28;20223;-81
2023/08/20 06:13:05;;;;;;;22.95;20.38;;;25.70;99.90;;;;;;5063218;28;20723;-81
2023/08/20 06:15:55;;;;;;;22.65;20.45;;;25.80;99.90;;;;;;5050813;28;20224;-90
2023/08/20 06:18:45;;;;;;;22.55;20.42;;;25.80;99.90;;;;;;5091740;27;20253;-88
2023/08/20 06:21:34;;;;;;;22.17;19.90;;;25.80;99.90;;;;;;5094032;28;20314;-86
2023/08/20 06:24:23;;;;;;;21.80;19.60;;;25.90;99.90;;;;;;5074507;28;20231;-87
2023/08/20 06:27:13;;;;;;;22.35;20.15;;;26.00;99.90;;;;;;5084705;28;20284;-86
2023/08/20 06:30:02;;;;;;;20.75;18.75;;;26.00;99.90;;;;;;5066451;28;20244;-84
2023/08/20 06:32:51;;;;;;;21.23;19.23;;;26.20;99.90;;;;;;5088605;28;20215;-84
2023/08/20 06:35:42;;;;;;;20.35;18.35;;;26.20;99.90;;;;;;5090820;28;20230;-88
2023/08/20 06:38:31;;;;;;;20.45;18.35;;;26.30;99.90;;;;;;5082939;28;20341;-83
2023/08/20 06:41:20;;;;;;;20.77;18.75;;;26.40;21.90;;;;;;5106995;28;20285;-81
2023/08/20 06:44:09;;;;;;;21.67;18.48;;;28.00;1.00;;;;;;5091121;28;20211;-88
2023/08/20 06:46:58;;;;;;;19.67;17.88;;;28.40;99.90;;;;;;5106157;28;20349;-89
2023/08/20 06:49:47;;;;;;;19.65;17.85;;;27.90;1.00;;;;;;5084478;28;20223;-90
2023/08/20 06:52:39;;;;;;;22.38;17.58;;;27.60;1.00;;;;;;5071414;28;20650;-80
2023/08/20 06:55:28;;;;;;;19.50;17.50;;;27.50;1.00;;;;;;5097527;28;20229;-80
2023/08/20 06:58:17;;;;;;;18.88;16.98;;;27.40;1.00;;;;;;5071867;28;21667;-85
2023/08/20 07:01:08;;;;;;;20.52;18.33;;;27.40;1.00;;;;;;5069342;28;21177;-80
2023/08/20 07:03:57;;;;;;;19.77;17.90;;;27.40;1.00;;;;;;5066758;28;20239;-80
2023/08/20 07:06:48;;;;;;;18.52;16.83;;;27.40;1.00;;;;;;5079899;28;20831;-84
2023/08/20 07:09:39;;;;;;;20.55;17.02;;;27.50;1.00;;;;;;5067046;28;20264;-83
2023/08/20 07:12:28;;;;;;;18.65;16.90;;;27.50;1.00;;;;;;5082112;28;20227;-84
2023/08/20 07:15:17;;;;;;;20.45;18.17;;;27.50;1.00;;;;;;5086170;28;20266;-81
2023/08/20 07:18:06;;;;;;;19.20;17.25;;;27.60;1.00;;;;;;5078030;28;20600;-80
2023/08/20 07:20:56;;;;;;;18.25;16.70;;;27.70;1.00;;;;;;5078334;28;20224;-80
2023/08/20 07:23:45;;;;;;;19.08;17.15;;;27.70;1.00;;;;;;5084823;28;20223;-82
2023/08/20 07:26:36;;;;;;;18.58;16.73;;;27.80;99.90;;;;;;5068849;28;20717;-80
2023/08/20 07:29:25;;;;;;;17.98;16.20;;;28.00;99.90;;;;;;5074733;28;20277;-80
2023/08/20 07:32:13;;;;;;;18.52;16.77;;;28.20;99.90;;;;;;5098173;28;20648;-80
2023/08/20 07:35:02;;;;;;;17.75;16.08;;;28.20;99.90;;;;;;5080966;28;20321;-80
2023/08/20 07:37:51;;;;;;;19.77;16.52;;;28.30;99.90;;;;;;5087196;28;20812;-80
2023/08/20 07:40:40;;;;;;;17.70;15.63;;;28.40;1.00;;;;;;5081840;28;20258;-81
2023/08/20 07:43:30;;;;;;;16.88;15.05;;;28.50;99.90;;;;;;5082954;28;20294;-80
2023/08/20 07:46:20;;;;;;;25.75;17.02;;;28.60;99.90;;;;;;5065684;28;20264;-80
2023/08/20 07:49:09;;;;;;;16.13;14.63;;;28.80;99.90;;;;;;5096215;28;20230;-80
2023/08/20 07:51:58;;;;;;;18.05;16.33;;;28.90;99.90;;;;;;5082244;28;20223;-80
2023/08/20 07:54:47;;;;;;;19.92;17.92;;;29.10;99.90;;;;;;5067742;28;20227;-80
2023/08/20 07:57:35;;;;;;;16.67;15.10;;;29.40;99.90;;;;;;5096195;28;20705;-81
2023/08/20 08:00:26;;;;;;;17.15;15.35;;;29.40;99.90;;;;;;5076753;28;20231;-80
2023/08/20 08:03:16;;;;;;;15.05;13.65;;;29.50;99.90;;;;;;5069194;28;20254;-80
2023/08/20 08:06:06;;;;;;;15.35;14.02;;;29.80;99.90;;;;;;5073559;28;20234;-80
2023/08/20 08:08:55;;;;;;;14.60;13.25;;;30.00;99.90;;;;;;5079016;28;20219;-81
2023/08/20 08:11:44;;;;;;;15.85;14.25;;;30.20;99.90;;;;;;5080221;28;20212;-80
2023/08/20 08:14:33;;;;;;;15.27;13.68;;;29.90;99.90;;;;;;5072134;28;20226;-81
2023/08/20 08:17:23;;;;;;;15.25;13.75;;;30.10;99.90;;;;;;5094943;28;20214;-80
2023/08/20 08:20:24;;;;;;;15.77;14.35;;;29.60;99.90;;;;;;5116396;27;20653;-74
2023/08/20 08:23:13;;;;;;;14.25;12.82;;;30.10;99.90;;;;;;5118336;27;20229;-74
2023/08/20 08:26:05;;;;;;;13.50;12.20;;;30.70;99.90;;;;;;5099778;28;20704;-74
2023/08/20 08:28:54;;;;;;;13.32;11.95;;;31.20;99.90;;;;;;5126489;27;21059;-75
2023/08/20 08:31:45;;;;;;;13.60;12.30;;;31.70;99.90;;;;;;5125343;27;20703;-74
2023/08/20 08:34:35;;;;;;;14.35;11.57;;;32.10;99.90;;;;;;5123788;27;20236;-74
2023/08/20 08:37:25;;;;;;;13.52;12.23;;;32.70;99.90;;;;;;5119403;27;20274;-75
2023/08/20 08:40:14;;;;;;;12.55;11.25;;;32.80;99.90;;;;;;5112388;27;20221;-74
2023/08/20 08:43:16;;;;;;;12.82;11.18;;;33.10;89.20;;;;;;5116337;27;20216;-74
2023/08/20 08:46:08;;;;;;;12.10;11.00;;;33.30;89.40;;;;;;5112112;27;20241;-75
2023/08/20 08:48:57;;;;;;;13.27;11.10;;;33.60;97.70;;;;;;5121738;27;20224;-74
2023/08/20 08:51:47;;;;;;;13.32;11.93;;;33.70;80.70;;;;;;5130552;27;21009;-75
2023/08/20 08:54:39;;;;;;;12.43;11.13;;;33.90;90.40;;;;;;5110574;27;20233;-73
2023/08/20 08:57:28;;;;;;;12.35;10.80;;;34.30;88.40;;;;;;5114821;27;20213;-74
2023/08/20 09:00:18;;;;;;;13.00;11.38;;;34.40;79.90;;;;;;5121942;27;20222;-75
2023/08/20 09:03:08;;;;;;;11.25;10.00;;;34.40;96.00;;;;;;5130622;27;20213;-74
2023/08/20 09:06:08;;;;;;;12.13;11.02;;;34.50;70.30;;;;;;5085028;28;20244;-74
2023/08/20 09:09:06;;;;;;;12.68;11.43;;;34.50;88.30;;;;;;5126483;27;20362;-74
2023/08/20 09:11:57;;;;;;;12.05;10.85;;;35.00;80.00;;;;;;5125470;27;20233;-74
2023/08/20 09:14:51;;;;;;;11.48;10.45;;;34.50;86.60;;;;;;5126186;27;20252;-74
2023/08/20 09:17:42;;;;;;;12.13;10.40;;;33.30;89.30;;;;;;5117831;27;20236;-75
2023/08/20 09:20:37;;;;;;;12.30;11.10;;;34.10;78.50;;;;;;5111273;27;20238;-75
2023/08/20 09:23:29;;;;;;;13.02;11.73;;;33.90;93.10;;;;;;5130785;27;20228;-75
2023/08/20 09:26:19;;;;;;;11.82;10.85;;;34.80;92.70;;;;;;5133228;27;20613;-75
2023/08/20 09:29:09;;;;;;;11.27;10.15;;;35.50;70.20;;;;;;5112342;27;20351;-76
2023/08/20 09:32:02;;;;;;;10.88;9.88;;;35.80;67.60;;;;;;5109424;27;20214;-75
2023/08/20 09:34:53;;;;;;;12.50;11.30;;;36.30;58.20;;;;;;5097378;27;20210;-74
2023/08/20 09:37:45;;;;;;;11.48;10.27;;;35.90;57.70;;;;;;5105202;27;20988;-77
2023/08/20 09:40:35;;;;;;;11.60;10.50;;;36.30;55.50;;;;;;5112189;27;20222;-76
2023/08/20 09:43:28;;;;;;;12.20;10.38;;;36.40;43.80;;;;;;5100046;27;20222;-77
2023/08/20 09:46:25;;;;;;;11.20;10.15;;;37.10;44.40;;;;;;5082860;27;20799;-79
2023/08/20 09:49:18;;;;;;;10.77;9.70;;;37.50;34.60;;;;;;5093554;27;21045;-74
2023/08/20 09:52:10;;;;;;;11.43;10.25;;;36.10;39.10;;;;;;5113801;27;20245;-73
2023/08/20 09:55:09;;;;;;;11.35;10.25;;;37.20;40.00;;;;;;5111219;27;20214;-74
2023/08/20 09:57:59;;;;;;;10.10;9.20;;;38.40;33.30;;;;;;5104343;27;20344;-75
2023/08/20 10:00:59;;;;;;;10.98;9.82;;;39.30;22.90;;;;;;5109324;27;22349;-75
2023/08/20 10:03:50;;;;;;;10.07;9.18;;;39.70;15.40;;;;;;5107561;27;20688;-75
2023/08/20 10:06:39;;;;;;;10.32;9.43;;;40.10;14.20;;;;;;5101077;27;20949;-75
2023/08/20 10:09:28;;;;;;;9.93;9.07;;;40.40;10.70;;;;;;5114530;27;20354;-75
2023/08/20 10:12:17;;;;;;;10.15;9.02;;;40.60;6.60;;;;;;5117218;27;20219;-76
2023/08/20 10:15:09;;;;;;;9.50;8.60;;;40.90;6.80;;;;;;5091055;27;20598;-75
2023/08/20 10:17:58;;;;;;;9.38;8.57;;;40.80;1.80;;;;;;5083039;28;20301;-76
2023/08/20 10:20:51;;;;;;;9.85;9.05;;;40.70;2.60;;;;;;5115917;27;20218;-74
2023/08/20 10:23:42;;;;;;;10.07;8.95;;;41.00;1.30;;;;;;5105969;27;20249;-75
2023/08/20 10:26:34;;;;;;;9.20;8.35;;;41.60;1.00;;;;;;5097959;27;20676;-75
2023/08/20 10:29:42;;;;;;;8.95;8.15;;;41.70;1.00;;;;;;5118233;27;21215;-75
2023/08/20 10:32:49;;;;;;;9.57;8.70;;;41.90;1.00;;;;;;5116883;27;20233;-75
2023/08/20 10:35:54;;;;;;;8.82;8.13;;;42.40;1.00;;;;;;5114811;27;20213;-75
2023/08/20 10:38:46;;;;;;;10.98;9.38;;;42.50;1.00;;;;;;5111619;27;20229;-75
2023/08/20 10:41:37;;;;;;;8.80;8.07;;;42.70;1.00;;;;;;5109096;27;20253;-75
2023/08/20 10:44:25;;;;;;;9.77;8.73;;;42.80;1.00;;;;;;5108717;27;20218;-75
2023/08/20 10:47:18;;;;;;;9.23;8.38;;;43.10;1.00;;;;;;5092893;28;20233;-73
2023/08/20 10:50:10;;;;;;;10.02;9.13;;;40.90;1.00;;;;;;5096301;28;20218;-73
2023/08/20 10:53:01;;;;;;;10.75;9.88;;;38.90;17.40;;;;;;5096290;28;20554;-73
2023/08/20 10:55:51;;;;;;;10.77;9.43;;;39.50;22.80;;;;;;5074230;28;20304;-73
2023/08/20 10:58:42;;;;;;;10.15;9.35;;;37.40;32.50;;;;;;5089309;27;20218;-73
2023/08/20 11:01:31;;;;;;;9.93;9.02;;;39.90;24.10;;;;;;5100947;27;20214;-74
2023/08/20 11:04:21;;;;;;;9.32;8.50;;;41.40;10.80;;;;;;5107329;27;20241;-73
2023/08/20 11:07:11;;;;;;;8.55;7.85;;;40.20;13.80;;;;;;5117625;27;20770;-74
2023/08/20 11:10:03;;;;;;;9.52;8.68;;;38.10;26.20;;;;;;5094989;27;20228;-74
2023/08/20 11:12:52;;;;;;;11.15;9.20;;;37.90;30.10;;;;;;5088716;27;20360;-74
2023/08/20 11:15:41;;;;;;;10.73;9.73;;;39.40;26.10;;;;;;5089631;27;20321;-73
2023/08/20 11:18:31;;;;;;;9.85;9.05;;;39.30;25.70;;;;;;5085922;27;20530;-74
2023/08/20 11:21:21;;;;;;;13.02;11.50;;;41.20;16.00;;;;;;5094477;27;20226;-74
2023/08/20 11:24:12;;;;;;;10.23;9.38;;;41.30;9.80;;;;;;5090633;27;20348;-74
2023/08/20 11:27:02;;;;;;;10.63;9.63;;;38.50;23.80;;;;;;5079979;28;20226;-73
2023/08/20 11:29:53;;;;;;;9.90;9.10;;;38.20;38.00;;;;;;5096547;27;20218;-72
2023/08/20 11:32:44;;;;;;;10.38;9.52;;;37.60;41.40;;;;;;5109802;27;20622;-73
2023/08/20 11:35:34;;;;;;;12.93;11.63;;;38.60;29.70;;;;;;5114383;27;20872;-73
2023/08/20 11:38:25;;;;;;;11.65;10.70;;;41.20;22.30;;;;;;5116466;27;20225;-74
2023/08/20 11:41:14;;;;;;;12.95;11.85;;;43.20;7.90;;;;;;5112400;27;20217;-74
2023/08/20 11:44:04;;;;;;;11.82;10.63;;;43.10;1.00;;;;;;5109119;27;20229;-73
2023/08/20 11:46:53;;;;;;;9.57;8.77;;;44.20;1.00;;;;;;5119122;27;20229;-73
2023/08/20 11:49:42;;;;;;;9.93;9.13;;;45.80;1.00;;;;;;5099293;27;20215;-74
2023/08/20 11:52:32;;;;;;;8.93;8.13;;;46.90;1.00;;;;;;5085146;28;20892;-74
2023/08/20 11:55:24;;;;;;;8.45;7.75;;;47.90;1.00;;;;;;5090206;28;20306;-74
2023/08/20 11:58:13;;;;;;;8.23;7.53;;;48.50;1.00;;;;;;5101814;27;20305;-75
2023/08/20 12:01:09;;;;;;;7.93;7.30;;;48.80;1.00;;;;;;5098418;27;20239;-75
2023/08/20 12:04:01;;;;;;;10.38;7.45;;;49.30;1.00;;;;;;5091820;28;20349;-75
2023/08/20 12:07:06;;;;;;;8.13;7.50;;;50.20;1.00;;;;;;5104979;27;20234;-74
2023/08/20 12:09:55;;;;;;;9.02;8.18;;;49.70;1.00;;;;;;5110477;27;20228;-76
2023/08/20 12:12:43;;;;;;;8.23;7.50;;;47.80;1.00;;;;;;5104862;27;20651;-74
2023/08/20 12:15:37;;;;;;;8.30;7.70;;;46.20;1.00;;;;;;5092687;28;20616;-74
2023/08/20 12:18:27;;;;;;;8.43;7.68;;;44.90;1.00;;;;;;5111365;27;20229;-74
2023/08/20 12:21:16;;;;;;;8.73;8.02;;;42.90;2.40;;;;;;5105328;28;20222;-73
2023/08/20 12:24:06;;;;;;;9.98;9.07;;;40.30;19.80;;;;;;5104405;28;20275;-74
2023/08/20 12:26:55;;;;;;;10.43;9.52;;;38.90;42.40;;;;;;5106480;28;20421;-74
2023/08/20 12:29:44;;;;;;;10.52;9.57;;;37.60;45.00;;;;;;5108833;28;20222;-74
2023/08/20 12:32:32;;;;;;;12.55;11.55;;;36.60;55.50;;;;;;5114209;28;20270;-74
2023/08/20 12:35:23;;;;;;;12.85;11.77;;;35.90;64.10;;;;;;5101957;28;20366;-73
2023/08/20 12:38:12;;;;;;;11.98;10.85;;;35.40;72.40;;;;;;5088092;28;20218;-74
2023/08/20 12:41:01;;;;;;;13.57;12.32;;;34.90;75.90;;;;;;5115009;28;20229;-73
2023/08/20 12:43:51;;;;;;;12.43;10.82;;;34.60;89.10;;;;;;5107593;28;20580;-74
2023/08/20 12:46:39;;;;;;;12.40;11.50;;;34.30;86.70;;;;;;5105645;28;20216;-73
2023/08/20 12:49:29;;;;;;;12.50;11.32;;;34.10;93.10;;;;;;5103188;27;20230;-73
2023/08/20 12:52:19;;;;;;;12.32;11.23;;;33.80;92.90;;;;;;5097484;28;20569;-73
2023/08/20 12:55:08;;;;;;;14.05;12.93;;;33.70;94.30;;;;;;5112836;28;20682;-74
2023/08/20 12:57:58;;;;;;;13.57;12.15;;;33.40;97.90;;;;;;5104964;28;20732;-73
2023/08/20 13:00:47;;;;;;;12.55;11.55;;;33.40;97.80;;;;;;5092244;28;20301;-72
2023/08/20 13:03:38;;;;;;;12.13;11.10;;;33.30;96.90;;;;;;5086079;28;20222;-74
2023/08/20 13:06:28;;;;;;;13.38;12.23;;;33.20;98.20;;;;;;5083078;28;20219;-73
2023/08/20 13:09:19;;;;;;;13.35;11.90;;;33.10;99.20;;;;;;5092110;28;20240;-74
2023/08/20 13:12:12;;;;;;;13.20;12.10;;;33.10;99.80;;;;;;5094865;28;20236;-73
2023/08/20 13:15:06;;;;;;;12.90;11.90;;;32.90;99.90;;;;;;5102859;27;20214;-73
2023/08/20 13:17:56;;;;;;;12.90;11.63;;;32.90;99.90;;;;;;5118650;27;20220;-73
2023/08/20 13:20:45;;;;;;;13.27;11.98;;;32.90;98.60;;;;;;5123496;27;20235;-73
2023/08/20 13:23:34;;;;;;;12.27;11.32;;;32.70;99.90;;;;;;5101302;27;20287;-73
2023/08/20 13:26:24;;;;;;;12.98;11.88;;;32.60;99.90;;;;;;5115912;27;20218;-74
2023/08/20 13:29:13;;;;;;;14.05;12.82;;;32.40;99.90;;;;;;5105357;27;20228;-73
2023/08/20 13:32:02;;;;;;;13.77;12.57;;;32.30;99.90;;;;;;5098302;27;20230;-74
2023/08/20 13:34:51;;;;;;;13.15;11.90;;;32.30;99.90;;;;;;5115484;27;20263;-74
2023/08/20 13:37:40;;;;;;;17.50;12.63;;;32.30;99.90;;;;;;5121829;27;20221;-72
2023/08/20 13:40:29;;;;;;;13.60;12.40;;;32.20;99.90;;;;;;5116703;27;20339;-74
2023/08/20 13:43:19;;;;;;;13.75;12.52;;;32.30;99.90;;;;;;5099908;27;20238;-74
2023/08/20 13:46:08;;;;;;;14.85;12.93;;;32.20;99.90;;;;;;5116850;27;20220;-83
2023/08/20 13:48:57;;;;;;;12.50;11.48;;;32.00;99.90;;;;;;5116732;27;20214;-76
2023/08/20 13:51:46;;;;;;;13.90;12.70;;;32.00;99.90;;;;;;5100209;27;20218;-74
2023/08/20 13:54:36;;;;;;;13.73;12.48;;;32.00;99.90;;;;;;5095472;27;20881;-74
2023/08/20 13:57:25;;;;;;;13.60;12.15;;;31.80;99.90;;;;;;5094650;27;20252;-75
2023/08/20 14:00:16;;;;;;;13.67;12.37;;;31.60;99.90;;;;;;5091306;27;20435;-74
2023/08/20 14:03:05;;;;;;;13.15;11.85;;;31.70;99.90;;;;;;5079698;27;20222;-74
2023/08/20 14:05:55;;;;;;;14.02;12.63;;;31.60;99.90;;;;;;5114098;27;20233;-75
2023/08/20 14:08:43;;;;;;;13.18;11.88;;;31.60;99.90;;;;;;5095180;28;20253;-74
2023/08/20 14:11:32;;;;;;;14.43;12.57;;;31.50;99.90;;;;;;5115807;27;21527;-74
2023/08/20 14:14:21;;;;;;;13.77;12.68;;;31.40;99.90;;;;;;5111880;27;20238;-73
2023/08/20 14:17:11;;;;;;;14.55;13.20;;;31.40;99.90;;;;;;5102400;27;20233;-73
2023/08/20 14:20:00;;;;;;;16.05;14.55;;;31.20;99.90;;;;;;5096620;27;20229;-74
2023/08/20 14:22:53;;;;;;;16.88;14.77;;;31.10;99.90;;;;;;5091651;27;20316;-73
2023/08/20 14:25:42;;;;;;;16.90;15.18;;;31.10;99.90;;;;;;5097393;27;20300;-74
2023/08/20 14:28:31;;;;;;;14.88;13.57;;;31.10;99.90;;;;;;5117774;27;20307;-73
2023/08/20 14:31:20;;;;;;;15.40;14.10;;;31.00;99.90;;;;;;5110600;27;20403;-73